Terminal Aerodrome Forecast
Issued by NWS

Home | Current Version | Previous Version | Text Only | Print | Product List | Glossary On
Versions: 1 2 3 4 5 6 7 8 9 10 11 12 13 14 15 16
000
FTUS43 KBIS 280500 RRA
TAFJMS
TAF
KJMS 280547Z 2806/2906 13011KT P6SM FEW018 OVC035
      TEMPO 2807/2808 SCT035
     FM280800 12008KT P6SM FEW030 SCT070
     FM281100 10007KT P6SM SCT020 BKN080
     FM281900 13009KT P6SM SCT060 BKN090
     FM290300 15008KT P6SM FEW030 SCT080=

USA.gov is the U.S. government's official web portal to all federal, state and local government web resources and services.